sensor_id;sensor_type;location;lat;lon;timestamp;temperature;humidity
65058;HTU21D;51644;51.068;5.860;2023-06-04T00:00:38;16.60;46.94
65058;HTU21D;51644;51.068;5.860;2023-06-04T00:01:36;16.58;47.12
65058;HTU21D;51644;51.068;5.860;2023-06-04T00:02:35;16.58;47.44
65058;HTU21D;51644;51.068;5.860;2023-06-04T00:03:34;16.56;47.28
65058;HTU21D;51644;51.068;5.860;2023-06-04T00:04:33;16.56;47.28
65058;HTU21D;51644;51.068;5.860;2023-06-04T00:05:34;16.52;47.68
65058;HTU21D;51644;51.068;5.860;2023-06-04T00:06:33;16.49;47.99
65058;HTU21D;51644;51.068;5.860;2023-06-04T00:07:32;16.47;47.79
65058;HTU21D;51644;51.068;5.860;2023-06-04T00:08:30;16.45;47.95
65058;HTU21D;51644;51.068;5.860;2023-06-04T00:09:29;16.42;48.20
65058;HTU21D;51644;51.068;5.860;2023-06-04T00:10:27;16.41;48.09
65058;HTU21D;51644;51.068;5.860;2023-06-04T00:11:26;16.39;47.87
65058;HTU21D;51644;51.068;5.860;2023-06-04T00:12:24;16.36;48.05
65058;HTU21D;51644;51.068;5.860;2023-06-04T00:13:23;16.34;47.73
65058;HTU21D;51644;51.068;5.860;2023-06-04T00:14:34;16.31;47.64
65058;HTU21D;51644;51.068;5.860;2023-06-04T00:15:33;16.31;47.54
65058;HTU21D;51644;51.068;5.860;2023-06-04T00:16:31;16.29;47.40
65058;HTU21D;51644;51.068;5.860;2023-06-04T00:17:30;16.31;47.09
65058;HTU21D;51644;51.068;5.860;2023-06-04T00:18:29;16.29;47.00
65058;HTU21D;51644;51.068;5.860;2023-06-04T00:19:27;16.29;47.09
65058;HTU21D;51644;51.068;5.860;2023-06-04T00:20:26;16.26;47.28
65058;HTU21D;51644;51.068;5.860;2023-06-04T00:21:24;16.24;47.61
65058;HTU21D;51644;51.068;5.860;2023-06-04T00:22:24;16.22;47.96
65058;HTU21D;51644;51.068;5.860;2023-06-04T00:23:22;16.20;48.37
65058;HTU21D;51644;51.068;5.860;2023-06-04T00:24:23;16.17;48.72
65058;HTU21D;51644;51.068;5.860;2023-06-04T00:25:22;16.12;48.91
65058;HTU21D;51644;51.068;5.860;2023-06-04T00:26:20;16.08;49.40
65058;HTU21D;51644;51.068;5.860;2023-06-04T00:27:20;16.05;49.52
65058;HTU21D;51644;51.068;5.860;2023-06-04T00:28:19;16.03;49.31
65058;HTU21D;51644;51.068;5.860;2023-06-04T00:29:17;16.00;49.35
65058;HTU21D;51644;51.068;5.860;2023-06-04T00:30:16;16.00;49.66
65058;HTU21D;51644;51.068;5.860;2023-06-04T00:31:14;15.99;49.89
65058;HTU21D;51644;51.068;5.860;2023-06-04T00:32:14;15.96;50.10
65058;HTU21D;51644;51.068;5.860;2023-06-04T00:33:12;15.93;50.21
65058;HTU21D;51644;51.068;5.860;2023-06-04T00:34:11;15.91;50.40
65058;HTU21D;51644;51.068;5.860;2023-06-04T00:35:09;15.89;50.69
65058;HTU21D;51644;51.068;5.860;2023-06-04T00:36:08;15.85;50.92
65058;HTU21D;51644;51.068;5.860;2023-06-04T00:37:07;15.84;51.27
65058;HTU21D;51644;51.068;5.860;2023-06-04T00:38:08;15.82;51.06
65058;HTU21D;51644;51.068;5.860;2023-06-04T00:39:19;15.81;51.20
65058;HTU21D;51644;51.068;5.860;2023-06-04T00:40:18;15.81;51.50
65058;HTU21D;51644;51.068;5.860;2023-06-04T00:41:17;15.77;51.53
65058;HTU21D;51644;51.068;5.860;2023-06-04T00:42:16;15.77;51.47
65058;HTU21D;51644;51.068;5.860;2023-06-04T00:43:14;15.77;51.69
65058;HTU21D;51644;51.068;5.860;2023-06-04T00:44:13;15.76;51.77
65058;HTU21D;51644;51.068;5.860;2023-06-04T00:45:11;15.76;51.53
65058;HTU21D;51644;51.068;5.860;2023-06-04T00:46:14;15.74;51.80
65058;HTU21D;51644;51.068;5.860;2023-06-04T00:47:18;15.72;51.90
65058;HTU21D;51644;51.068;5.860;2023-06-04T00:48:18;15.69;52.06
65058;HTU21D;51644;51.068;5.860;2023-06-04T00:49:17;15.69;52.23
65058;HTU21D;51644;51.068;5.860;2023-06-04T00:50:16;15.66;52.12
65058;HTU21D;51644;51.068;5.860;2023-06-04T00:51:14;15.67;51.82
65058;HTU21D;51644;51.068;5.860;2023-06-04T00:52:15;15.67;50.94
65058;HTU21D;51644;51.068;5.860;2023-06-04T00:53:14;15.69;50.63
65058;HTU21D;51644;51.068;5.860;2023-06-04T00:54:15;15.71;50.34
65058;HTU21D;51644;51.068;5.860;2023-06-04T00:55:16;15.71;50.06
65058;HTU21D;51644;51.068;5.860;2023-06-04T00:56:18;15.71;49.94
65058;HTU21D;51644;51.068;5.860;2023-06-04T00:57:17;15.69;50.02
65058;HTU21D;51644;51.068;5.860;2023-06-04T00:58:16;15.69;49.98
65058;HTU21D;51644;51.068;5.860;2023-06-04T00:59:15;15.68;50.21
65058;HTU21D;51644;51.068;5.860;2023-06-04T01:00:15;15.67;49.63
65058;HTU21D;51644;51.068;5.860;2023-06-04T01:01:36;15.67;49.03
65058;HTU21D;51644;51.068;5.860;2023-06-04T01:02:38;15.66;49.19
65058;HTU21D;51644;51.068;5.860;2023-06-04T01:03:43;15.62;49.50
65058;HTU21D;51644;51.068;5.860;2023-06-04T01:06:04;15.58;49.85
65058;HTU21D;51644;51.068;5.860;2023-06-04T01:07:09;15.56;49.52
65058;HTU21D;51644;51.068;5.860;2023-06-04T01:08:08;15.56;48.75
65058;HTU21D;51644;51.068;5.860;2023-06-04T01:09:10;15.58;48.34
65058;HTU21D;51644;51.068;5.860;2023-06-04T01:10:09;15.59;47.57
65058;HTU21D;51644;51.068;5.860;2023-06-04T01:11:08;15.61;47.36
65058;HTU21D;51644;51.068;5.860;2023-06-04T01:12:07;15.62;47.26
65058;HTU21D;51644;51.068;5.860;2023-06-04T01:13:06;15.63;47.08
65058;HTU21D;51644;51.068;5.860;2023-06-04T01:14:07;15.63;47.06
65058;HTU21D;51644;51.068;5.860;2023-06-04T01:15:10;15.63;46.66
65058;HTU21D;51644;51.068;5.860;2023-06-04T01:16:12;15.65;46.40
65058;HTU21D;51644;51.068;5.860;2023-06-04T01:17:23;15.66;46.07
65058;HTU21D;51644;51.068;5.860;2023-06-04T01:18:28;15.65;46.44
65058;HTU21D;51644;51.068;5.860;2023-06-04T01:21:10;15.65;46.22
65058;HTU21D;51644;51.068;5.860;2023-06-04T01:23:51;15.62;46.28
65058;HTU21D;51644;51.068;5.860;2023-06-04T01:25:03;15.59;46.73
65058;HTU21D;51644;51.068;5.860;2023-06-04T01:26:04;15.57;47.09
65058;HTU21D;51644;51.068;5.860;2023-06-04T01:27:05;15.55;46.91
65058;HTU21D;51644;51.068;5.860;2023-06-04T01:28:06;15.53;47.02
65058;HTU21D;51644;51.068;5.860;2023-06-04T01:29:05;15.51;47.06
65058;HTU21D;51644;51.068;5.860;2023-06-04T01:30:04;15.47;47.54
65058;HTU21D;51644;51.068;5.860;2023-06-04T01:31:05;15.44;47.73
65058;HTU21D;51644;51.068;5.860;2023-06-04T01:32:06;15.41;47.96
65058;HTU21D;51644;51.068;5.860;2023-06-04T01:33:05;15.39;47.97
65058;HTU21D;51644;51.068;5.860;2023-06-04T01:34:07;15.36;48.34
65058;HTU21D;51644;51.068;5.860;2023-06-04T01:35:11;15.33;48.30
65058;HTU21D;51644;51.068;5.860;2023-06-04T01:36:10;15.31;48.50
65058;HTU21D;51644;51.068;5.860;2023-06-04T01:37:10;15.29;48.58
65058;HTU21D;51644;51.068;5.860;2023-06-04T01:38:10;15.25;48.63
65058;HTU21D;51644;51.068;5.860;2023-06-04T01:39:09;15.25;48.02
65058;HTU21D;51644;51.068;5.860;2023-06-04T01:40:08;15.26;48.33
65058;HTU21D;51644;51.068;5.860;2023-06-04T01:41:07;15.25;48.20
65058;HTU21D;51644;51.068;5.860;2023-06-04T01:42:06;15.23;48.28
65058;HTU21D;51644;51.068;5.860;2023-06-04T01:43:05;15.21;48.38
65058;HTU21D;51644;51.068;5.860;2023-06-04T01:44:03;15.22;48.25
65058;HTU21D;51644;51.068;5.860;2023-06-04T01:45:02;15.21;48.10
65058;HTU21D;51644;51.068;5.860;2023-06-04T01:46:02;15.22;48.25
65058;HTU21D;51644;51.068;5.860;2023-06-04T01:47:01;15.19;48.34
65058;HTU21D;51644;51.068;5.860;2023-06-04T01:48:04;15.18;48.37
65058;HTU21D;51644;51.068;5.860;2023-06-04T01:49:05;15.18;48.36
65058;HTU21D;51644;51.068;5.860;2023-06-04T01:50:05;15.16;48.31
65058;HTU21D;51644;51.068;5.860;2023-06-04T01:51:07;15.16;48.08
65058;HTU21D;51644;51.068;5.860;2023-06-04T01:52:06;15.15;48.19
65058;HTU21D;51644;51.068;5.860;2023-06-04T01:53:05;15.15;48.18
65058;HTU21D;51644;51.068;5.860;2023-06-04T01:54:04;15.15;48.18
65058;HTU21D;51644;51.068;5.860;2023-06-04T01:55:08;15.15;48.39
65058;HTU21D;51644;51.068;5.860;2023-06-04T01:56:07;15.12;48.55
65058;HTU21D;51644;51.068;5.860;2023-06-04T01:57:06;15.10;48.79
65058;HTU21D;51644;51.068;5.860;2023-06-04T01:58:06;15.07;49.02
65058;HTU21D;51644;51.068;5.860;2023-06-04T01:59:05;15.03;49.55
65058;HTU21D;51644;51.068;5.860;2023-06-04T02:00:05;15.00;49.35
65058;HTU21D;51644;51.068;5.860;2023-06-04T02:01:11;15.01;49.39
65058;HTU21D;51644;51.068;5.860;2023-06-04T02:02:10;14.99;49.18
65058;HTU21D;51644;51.068;5.860;2023-06-04T02:03:08;14.99;49.17
65058;HTU21D;51644;51.068;5.860;2023-06-04T02:04:09;14.96;49.43
65058;HTU21D;51644;51.068;5.860;2023-06-04T02:05:09;14.94;49.63
65058;HTU21D;51644;51.068;5.860;2023-06-04T02:06:08;14.93;49.50
65058;HTU21D;51644;51.068;5.860;2023-06-04T02:07:08;14.92;49.31
65058;HTU21D;51644;51.068;5.860;2023-06-04T02:08:08;14.91;49.11
65058;HTU21D;51644;51.068;5.860;2023-06-04T02:09:07;14.92;49.02
65058;HTU21D;51644;51.068;5.860;2023-06-04T02:11:04;14.94;48.74
65058;HTU21D;51644;51.068;5.860;2023-06-04T02:12:03;14.94;48.58
65058;HTU21D;51644;51.068;5.860;2023-06-04T02:13:02;14.95;48.60
65058;HTU21D;51644;51.068;5.860;2023-06-04T02:14:01;14.94;48.54
65058;HTU21D;51644;51.068;5.860;2023-06-04T02:15:00;14.95;48.45
65058;HTU21D;51644;51.068;5.860;2023-06-04T02:15:58;14.95;48.45
65058;HTU21D;51644;51.068;5.860;2023-06-04T02:16:57;14.95;48.39
65058;HTU21D;51644;51.068;5.860;2023-06-04T02:18:19;14.95;48.38
65058;HTU21D;51644;51.068;5.860;2023-06-04T02:19:20;14.94;48.29
65058;HTU21D;51644;51.068;5.860;2023-06-04T02:20:19;14.93;48.32
65058;HTU21D;51644;51.068;5.860;2023-06-04T02:21:17;14.92;48.36
65058;HTU21D;51644;51.068;5.860;2023-06-04T02:22:19;14.92;48.33
65058;HTU21D;51644;51.068;5.860;2023-06-04T02:23:21;14.92;48.27
65058;HTU21D;51644;51.068;5.860;2023-06-04T02:24:20;14.88;48.27
65058;HTU21D;51644;51.068;5.860;2023-06-04T02:25:19;14.86;48.41
65058;HTU21D;51644;51.068;5.860;2023-06-04T02:26:18;14.85;48.41
65058;HTU21D;51644;51.068;5.860;2023-06-04T02:27:17;14.83;48.47
65058;HTU21D;51644;51.068;5.860;2023-06-04T02:28:16;14.82;48.57
65058;HTU21D;51644;51.068;5.860;2023-06-04T02:29:14;14.80;48.73
65058;HTU21D;51644;51.068;5.860;2023-06-04T02:30:13;14.78;48.96
65058;HTU21D;51644;51.068;5.860;2023-06-04T02:31:12;14.74;49.00
65058;HTU21D;51644;51.068;5.860;2023-06-04T02:32:11;14.72;49.08
65058;HTU21D;51644;51.068;5.860;2023-06-04T02:33:09;14.69;49.43
65058;HTU21D;51644;51.068;5.860;2023-06-04T02:34:08;14.66;49.53
65058;HTU21D;51644;51.068;5.860;2023-06-04T02:35:07;14.64;49.73
65058;HTU21D;51644;51.068;5.860;2023-06-04T02:36:06;14.64;49.72
65058;HTU21D;51644;51.068;5.860;2023-06-04T02:37:05;14.62;49.79
65058;HTU21D;51644;51.068;5.860;2023-06-04T02:38:04;14.60;49.90
65058;HTU21D;51644;51.068;5.860;2023-06-04T02:39:03;14.59;50.10
65058;HTU21D;51644;51.068;5.860;2023-06-04T02:40:02;14.57;50.15
65058;HTU21D;51644;51.068;5.860;2023-06-04T02:41:01;14.58;50.04
65058;HTU21D;51644;51.068;5.860;2023-06-04T02:41:59;14.55;50.02
65058;HTU21D;51644;51.068;5.860;2023-06-04T02:42:58;14.54;50.21
65058;HTU21D;51644;51.068;5.860;2023-06-04T02:43:57;14.53;50.28
65058;HTU21D;51644;51.068;5.860;2023-06-04T02:44:55;14.55;50.21
65058;HTU21D;51644;51.068;5.860;2023-06-04T02:45:54;14.54;50.34
65058;HTU21D;51644;51.068;5.860;2023-06-04T02:46:53;14.53;50.34
65058;HTU21D;51644;51.068;5.860;2023-06-04T02:47:51;14.52;50.66
65058;HTU21D;51644;51.068;5.860;2023-06-04T02:48:50;14.50;50.62
65058;HTU21D;51644;51.068;5.860;2023-06-04T02:49:48;14.51;50.73
65058;HTU21D;51644;51.068;5.860;2023-06-04T02:50:47;14.51;50.93
65058;HTU21D;51644;51.068;5.860;2023-06-04T02:51:46;14.49;50.98
65058;HTU21D;51644;51.068;5.860;2023-06-04T02:52:44;14.48;50.88
65058;HTU21D;51644;51.068;5.860;2023-06-04T02:53:43;14.48;50.97
65058;HTU21D;51644;51.068;5.860;2023-06-04T02:54:41;14.47;50.98
65058;HTU21D;51644;51.068;5.860;2023-06-04T02:55:40;14.44;51.03
65058;HTU21D;51644;51.068;5.860;2023-06-04T02:56:40;14.43;51.33
65058;HTU21D;51644;51.068;5.860;2023-06-04T02:57:41;14.42;51.39
65058;HTU21D;51644;51.068;5.860;2023-06-04T02:58:51;14.41;51.43
65058;HTU21D;51644;51.068;5.860;2023-06-04T02:59:51;14.39;51.53
65058;HTU21D;51644;51.068;5.860;2023-06-04T03:00:52;14.40;51.68
65058;HTU21D;51644;51.068;5.860;2023-06-04T03:01:51;14.39;51.69
65058;HTU21D;51644;51.068;5.860;2023-06-04T03:02:49;14.38;51.85
65058;HTU21D;51644;51.068;5.860;2023-06-04T03:03:48;14.35;51.91
65058;HTU21D;51644;51.068;5.860;2023-06-04T03:04:47;14.35;52.01
65058;HTU21D;51644;51.068;5.860;2023-06-04T03:05:49;14.34;52.15
65058;HTU21D;51644;51.068;5.860;2023-06-04T03:06:47;14.33;52.22
65058;HTU21D;51644;51.068;5.860;2023-06-04T03:07:46;14.30;52.59
65058;HTU21D;51644;51.068;5.860;2023-06-04T03:08:49;14.29;52.65
65058;HTU21D;51644;51.068;5.860;2023-06-04T03:09:49;14.28;52.83
65058;HTU21D;51644;51.068;5.860;2023-06-04T03:10:48;14.25;53.12
65058;HTU21D;51644;51.068;5.860;2023-06-04T03:11:46;14.21;53.31
65058;HTU21D;51644;51.068;5.860;2023-06-04T03:12:45;14.18;53.53
65058;HTU21D;51644;51.068;5.860;2023-06-04T03:13:43;14.15;53.50
65058;HTU21D;51644;51.068;5.860;2023-06-04T03:14:42;14.14;53.39
65058;HTU21D;51644;51.068;5.860;2023-06-04T03:15:41;14.14;53.38
65058;HTU21D;51644;51.068;5.860;2023-06-04T03:16:39;14.15;53.51
65058;HTU21D;51644;51.068;5.860;2023-06-04T03:17:38;14.18;53.55
65058;HTU21D;51644;51.068;5.860;2023-06-04T03:18:37;14.18;53.58
65058;HTU21D;51644;51.068;5.860;2023-06-04T03:19:37;14.17;53.63
65058;HTU21D;51644;51.068;5.860;2023-06-04T03:20:41;14.18;53.52
65058;HTU21D;51644;51.068;5.860;2023-06-04T03:21:40;14.20;53.41
65058;HTU21D;51644;51.068;5.860;2023-06-04T03:22:39;14.20;53.39
65058;HTU21D;51644;51.068;5.860;2023-06-04T03:23:37;14.19;53.44
65058;HTU21D;51644;51.068;5.860;2023-06-04T03:24:40;14.18;53.64
65058;HTU21D;51644;51.068;5.860;2023-06-04T03:25:39;14.18;53.65
65058;HTU21D;51644;51.068;5.860;2023-06-04T03:26:43;14.18;53.78
65058;HTU21D;51644;51.068;5.860;2023-06-04T03:27:45;14.18;53.81
65058;HTU21D;51644;51.068;5.860;2023-06-04T03:28:43;14.13;53.91
65058;HTU21D;51644;51.068;5.860;2023-06-04T03:29:45;14.13;53.94
65058;HTU21D;51644;51.068;5.860;2023-06-04T03:30:45;14.14;54.02
65058;HTU21D;51644;51.068;5.860;2023-06-04T03:31:44;14.12;53.99
65058;HTU21D;51644;51.068;5.860;2023-06-04T03:32:43;14.14;54.00
65058;HTU21D;51644;51.068;5.860;2023-06-04T03:33:43;14.13;54.02
65058;HTU21D;51644;51.068;5.860;2023-06-04T03:34:42;14.12;54.10
65058;HTU21D;51644;51.068;5.860;2023-06-04T03:35:41;14.13;54.25
65058;HTU21D;51644;51.068;5.860;2023-06-04T03:36:40;14.12;54.59
65058;HTU21D;51644;51.068;5.860;2023-06-04T03:37:44;14.10;54.61
65058;HTU21D;51644;51.068;5.860;2023-06-04T03:38:45;14.11;54.55
65058;HTU21D;51644;51.068;5.860;2023-06-04T03:39:44;14.09;54.65
65058;HTU21D;51644;51.068;5.860;2023-06-04T03:40:46;14.06;54.87
65058;HTU21D;51644;51.068;5.860;2023-06-04T03:41:46;14.06;55.02
65058;HTU21D;51644;51.068;5.860;2023-06-04T03:42:45;14.06;55.07
65058;HTU21D;51644;51.068;5.860;2023-06-04T03:43:44;14.06;55.04
65058;HTU21D;51644;51.068;5.860;2023-06-04T03:44:44;14.07;55.07
65058;HTU21D;51644;51.068;5.860;2023-06-04T03:45:42;14.06;55.06
65058;HTU21D;51644;51.068;5.860;2023-06-04T03:46:43;14.06;54.98
65058;HTU21D;51644;51.068;5.860;2023-06-04T03:47:42;14.05;54.98
65058;HTU21D;51644;51.068;5.860;2023-06-04T03:48:41;14.06;54.95
65058;HTU21D;51644;51.068;5.860;2023-06-04T03:49:40;14.05;55.02
65058;HTU21D;51644;51.068;5.860;2023-06-04T03:50:39;14.04;55.04
65058;HTU21D;51644;51.068;5.860;2023-06-04T03:51:38;14.04;55.23
65058;HTU21D;51644;51.068;5.860;2023-06-04T03:52:38;14.05;55.34
65058;HTU21D;51644;51.068;5.860;2023-06-04T03:53:37;14.05;55.40
65058;HTU21D;51644;51.068;5.860;2023-06-04T03:54:36;14.03;55.51
65058;HTU21D;51644;51.068;5.860;2023-06-04T03:55:37;14.04;55.62
65058;HTU21D;51644;51.068;5.860;2023-06-04T03:56:37;14.05;55.61
65058;HTU21D;51644;51.068;5.860;2023-06-04T03:57:36;14.04;55.62
65058;HTU21D;51644;51.068;5.860;2023-06-04T03:58:36;14.04;55.73
65058;HTU21D;51644;51.068;5.860;2023-06-04T03:59:35;14.01;55.96
65058;HTU21D;51644;51.068;5.860;2023-06-04T04:00:34;14.04;55.97
65058;HTU21D;51644;51.068;5.860;2023-06-04T04:01:34;14.03;55.96
65058;HTU21D;51644;51.068;5.860;2023-06-04T04:02:32;14.00;56.07
65058;HTU21D;51644;51.068;5.860;2023-06-04T04:03:31;14.00;56.15
65058;HTU21D;51644;51.068;5.860;2023-06-04T04:04:31;14.00;56.13
65058;HTU21D;51644;51.068;5.860;2023-06-04T04:05:31;13.99;56.06
65058;HTU21D;51644;51.068;5.860;2023-06-04T04:06:30;13.98;56.23
65058;HTU21D;51644;51.068;5.860;2023-06-04T04:07:29;14.00;56.29
65058;HTU21D;51644;51.068;5.860;2023-06-04T04:08:28;13.99;56.27
65058;HTU21D;51644;51.068;5.860;2023-06-04T04:09:29;13.98;56.35
65058;HTU21D;51644;51.068;5.860;2023-06-04T04:10:28;13.97;56.43
65058;HTU21D;51644;51.068;5.860;2023-06-04T04:11:31;13.97;56.48
65058;HTU21D;51644;51.068;5.860;2023-06-04T04:12:29;13.95;56.52
65058;HTU21D;51644;51.068;5.860;2023-06-04T04:13:28;13.97;56.59
65058;HTU21D;51644;51.068;5.860;2023-06-04T04:14:27;13.97;56.66
65058;HTU21D;51644;51.068;5.860;2023-06-04T04:15:25;13.98;56.62
65058;HTU21D;51644;51.068;5.860;2023-06-04T04:16:26;13.98;56.63
65058;HTU21D;51644;51.068;5.860;2023-06-04T04:17:26;13.98;56.74
65058;HTU21D;51644;51.068;5.860;2023-06-04T04:18:25;13.97;56.84
65058;HTU21D;51644;51.068;5.860;2023-06-04T04:19:25;13.98;56.99
65058;HTU21D;51644;51.068;5.860;2023-06-04T04:20:24;14.00;56.98
65058;HTU21D;51644;51.068;5.860;2023-06-04T04:21:31;14.03;57.00
65058;HTU21D;51644;51.068;5.860;2023-06-04T04:22:29;14.03;56.97
65058;HTU21D;51644;51.068;5.860;2023-06-04T04:23:28;14.04;56.97
65058;HTU21D;51644;51.068;5.860;2023-06-04T04:24:27;14.07;56.93
65058;HTU21D;51644;51.068;5.860;2023-06-04T04:25:30;14.05;56.94
65058;HTU21D;51644;51.068;5.860;2023-06-04T04:26:32;14.06;57.01
65058;HTU21D;51644;51.068;5.860;2023-06-04T04:27:31;14.07;57.12
65058;HTU21D;51644;51.068;5.860;2023-06-04T04:28:32;14.07;57.14
65058;HTU21D;51644;51.068;5.860;2023-06-04T04:29:33;14.07;57.19
65058;HTU21D;51644;51.068;5.860;2023-06-04T04:30:34;14.06;57.26
65058;HTU21D;51644;51.068;5.860;2023-06-04T04:31:34;14.06;57.26
65058;HTU21D;51644;51.068;5.860;2023-06-04T04:32:34;14.05;57.19
65058;HTU21D;51644;51.068;5.860;2023-06-04T04:33:36;14.07;57.31
65058;HTU21D;51644;51.068;5.860;2023-06-04T04:34:50;14.07;57.40
65058;HTU21D;51644;51.068;5.860;2023-06-04T04:35:52;14.09;57.53
65058;HTU21D;51644;51.068;5.860;2023-06-04T04:36:53;14.09;57.62
65058;HTU21D;51644;51.068;5.860;2023-06-04T04:37:55;14.09;57.85
65058;HTU21D;51644;51.068;5.860;2023-06-04T04:38:54;14.08;57.79
65058;HTU21D;51644;51.068;5.860;2023-06-04T04:39:56;14.08;57.87
65058;HTU21D;51644;51.068;5.860;2023-06-04T04:40:56;14.07;58.10
65058;HTU21D;51644;51.068;5.860;2023-06-04T04:41:58;14.10;58.10
65058;HTU21D;51644;51.068;5.860;2023-06-04T04:42:58;14.11;57.98
65058;HTU21D;51644;51.068;5.860;2023-06-04T04:44:03;14.12;58.02
65058;HTU21D;51644;51.068;5.860;2023-06-04T04:45:03;14.12;57.99
65058;HTU21D;51644;51.068;5.860;2023-06-04T04:46:03;14.13;58.04
65058;HTU21D;51644;51.068;5.860;2023-06-04T04:47:02;14.15;57.93
65058;HTU21D;51644;51.068;5.860;2023-06-04T04:48:01;14.15;57.92
65058;HTU21D;51644;51.068;5.860;2023-06-04T04:48:59;14.17;57.93
65058;HTU21D;51644;51.068;5.860;2023-06-04T04:49:58;14.19;57.81
65058;HTU21D;51644;51.068;5.860;2023-06-04T04:50:57;14.18;57.86
65058;HTU21D;51644;51.068;5.860;2023-06-04T04:51:56;14.21;58.02
65058;HTU21D;51644;51.068;5.860;2023-06-04T04:52:55;14.21;58.05
65058;HTU21D;51644;51.068;5.860;2023-06-04T04:53:54;14.23;58.02
65058;HTU21D;51644;51.068;5.860;2023-06-04T04:54:53;14.25;57.96
65058;HTU21D;51644;51.068;5.860;2023-06-04T04:55:55;14.25;57.91
65058;HTU21D;51644;51.068;5.860;2023-06-04T04:56:54;14.26;58.00
65058;HTU21D;51644;51.068;5.860;2023-06-04T04:57:52;14.27;58.21
65058;HTU21D;51644;51.068;5.860;2023-06-04T04:58:53;14.28;58.25
65058;HTU21D;51644;51.068;5.860;2023-06-04T04:59:52;14.30;58.16
65058;HTU21D;51644;51.068;5.860;2023-06-04T05:00:51;14.33;58.08
65058;HTU21D;51644;51.068;5.860;2023-06-04T05:01:49;14.35;58.06
65058;HTU21D;51644;51.068;5.860;2023-06-04T05:02:50;14.38;57.90
65058;HTU21D;51644;51.068;5.860;2023-06-04T05:03:49;14.40;57.93
65058;HTU21D;51644;51.068;5.860;2023-06-04T05:04:48;14.39;57.91
65058;HTU21D;51644;51.068;5.860;2023-06-04T05:05:48;14.40;57.82
65058;HTU21D;51644;51.068;5.860;2023-06-04T05:06:46;14.41;57.86
65058;HTU21D;51644;51.068;5.860;2023-06-04T05:07:45;14.42;57.93
65058;HTU21D;51644;51.068;5.860;2023-06-04T05:08:44;14.45;57.77
65058;HTU21D;51644;51.068;5.860;2023-06-04T05:09:44;14.44;57.95
65058;HTU21D;51644;51.068;5.860;2023-06-04T05:10:43;14.47;57.97
65058;HTU21D;51644;51.068;5.860;2023-06-04T05:11:42;14.48;58.07
65058;HTU21D;51644;51.068;5.860;2023-06-04T05:12:53;14.49;58.16
65058;HTU21D;51644;51.068;5.860;2023-06-04T05:13:53;14.51;58.12
65058;HTU21D;51644;51.068;5.860;2023-06-04T05:14:54;14.54;57.98
65058;HTU21D;51644;51.068;5.860;2023-06-04T05:15:53;14.55;57.91
65058;HTU21D;51644;51.068;5.860;2023-06-04T05:16:54;14.58;57.88
65058;HTU21D;51644;51.068;5.860;2023-06-04T05:17:57;14.62;57.90
65058;HTU21D;51644;51.068;5.860;2023-06-04T05:19:00;14.63;57.80
65058;HTU21D;51644;51.068;5.860;2023-06-04T05:20:03;14.67;57.73
65058;HTU21D;51644;51.068;5.860;2023-06-04T05:21:06;14.69;57.68
65058;HTU21D;51644;51.068;5.860;2023-06-04T05:22:08;14.71;57.72
65058;HTU21D;51644;51.068;5.860;2023-06-04T05:23:08;14.74;57.62
65058;HTU21D;51644;51.068;5.860;2023-06-04T05:24:07;14.77;57.55
65058;HTU21D;51644;51.068;5.860;2023-06-04T05:25:09;14.75;57.49
65058;HTU21D;51644;51.068;5.860;2023-06-04T05:26:08;14.77;57.49
65058;HTU21D;51644;51.068;5.860;2023-06-04T05:27:07;14.80;57.54
65058;HTU21D;51644;51.068;5.860;2023-06-04T05:28:07;14.83;57.55
65058;HTU21D;51644;51.068;5.860;2023-06-04T05:29:07;14.83;57.65
65058;HTU21D;51644;51.068;5.860;2023-06-04T05:30:09;14.85;57.67
65058;HTU21D;51644;51.068;5.860;2023-06-04T05:31:08;14.89;57.45
65058;HTU21D;51644;51.068;5.860;2023-06-04T05:32:07;14.94;57.46
65058;HTU21D;51644;51.068;5.860;2023-06-04T05:33:06;14.93;57.45
65058;HTU21D;51644;51.068;5.860;2023-06-04T05:34:05;14.95;57.39
65058;HTU21D;51644;51.068;5.860;2023-06-04T05:35:06;14.97;57.26
65058;HTU21D;51644;51.068;5.860;2023-06-04T05:36:13;15.00;57.26
65058;HTU21D;51644;51.068;5.860;2023-06-04T05:37:20;15.03;57.21
65058;HTU21D;51644;51.068;5.860;2023-06-04T05:38:19;15.07;57.12
65058;HTU21D;51644;51.068;5.860;2023-06-04T05:39:20;15.09;57.10
65058;HTU21D;51644;51.068;5.860;2023-06-04T05:40:28;15.13;57.20
65058;HTU21D;51644;51.068;5.860;2023-06-04T05:41:29;15.16;57.05
65058;HTU21D;51644;51.068;5.860;2023-06-04T05:42:33;15.21;56.85
65058;HTU21D;51644;51.068;5.860;2023-06-04T05:43:34;15.24;56.77
65058;HTU21D;51644;51.068;5.860;2023-06-04T05:44:32;15.28;56.59
65058;HTU21D;51644;51.068;5.860;2023-06-04T05:45:39;15.29;56.43
65058;HTU21D;51644;51.068;5.860;2023-06-04T05:47:06;15.34;56.27
65058;HTU21D;51644;51.068;5.860;2023-06-04T05:48:39;15.38;56.29
65058;HTU21D;51644;51.068;5.860;2023-06-04T05:49:43;15.40;56.34
65058;HTU21D;51644;51.068;5.860;2023-06-04T05:53:34;15.54;56.16
65058;HTU21D;51644;51.068;5.860;2023-06-04T05:54:33;15.58;55.91
65058;HTU21D;51644;51.068;5.860;2023-06-04T05:55:32;15.60;55.57
65058;HTU21D;51644;51.068;5.860;2023-06-04T05:56:30;15.61;55.47
65058;HTU21D;51644;51.068;5.860;2023-06-04T05:57:31;15.63;55.44
65058;HTU21D;51644;51.068;5.860;2023-06-04T05:58:29;15.62;55.47
65058;HTU21D;51644;51.068;5.860;2023-06-04T05:59:29;15.66;55.49
65058;HTU21D;51644;51.068;5.860;2023-06-04T06:00:28;15.67;55.52
65058;HTU21D;51644;51.068;5.860;2023-06-04T06:01:27;15.71;55.57
65058;HTU21D;51644;51.068;5.860;2023-06-04T06:02:26;15.74;55.49
65058;HTU21D;51644;51.068;5.860;2023-06-04T06:03:25;15.78;55.45
65058;HTU21D;51644;51.068;5.860;2023-06-04T06:04:26;15.83;55.30
65058;HTU21D;51644;51.068;5.860;2023-06-04T06:05:25;15.88;55.15
65058;HTU21D;51644;51.068;5.860;2023-06-04T06:06:23;15.91;55.16
65058;HTU21D;51644;51.068;5.860;2023-06-04T06:07:22;15.97;55.07
65058;HTU21D;51644;51.068;5.860;2023-06-04T06:08:21;16.02;54.96
65058;HTU21D;51644;51.068;5.860;2023-06-04T06:09:20;16.06;54.88
65058;HTU21D;51644;51.068;5.860;2023-06-04T06:10:18;16.08;54.75
65058;HTU21D;51644;51.068;5.860;2023-06-04T06:11:17;16.13;54.70
65058;HTU21D;51644;51.068;5.860;2023-06-04T06:12:16;16.20;54.74
65058;HTU21D;51644;51.068;5.860;2023-06-04T06:13:15;16.27;54.22
65058;HTU21D;51644;51.068;5.860;2023-06-04T06:14:14;16.30;54.04
65058;HTU21D;51644;51.068;5.860;2023-06-04T06:15:13;16.35;53.94
65058;HTU21D;51644;51.068;5.860;2023-06-04T06:16:13;16.40;53.80
65058;HTU21D;51644;51.068;5.860;2023-06-04T06:17:11;16.46;53.62
65058;HTU21D;51644;51.068;5.860;2023-06-04T06:18:10;16.51;53.43
65058;HTU21D;51644;51.068;5.860;2023-06-04T06:19:08;16.58;52.88
65058;HTU21D;51644;51.068;5.860;2023-06-04T06:20:07;16.67;52.67
65058;HTU21D;51644;51.068;5.860;2023-06-04T06:21:06;16.84;52.22
65058;HTU21D;51644;51.068;5.860;2023-06-04T06:22:05;17.06;51.61
65058;HTU21D;51644;51.068;5.860;2023-06-04T06:23:07;17.49;50.80